sensor_id;sensor_type;location;lat;lon;timestamp;P1;durP1;ratioP1;P2;durP2;ratioP2
15354;SDS011;7777;52.254;9.618;2023-04-03T00:00:42;5.70;;;1.63;;
15354;SDS011;7777;52.254;9.618;2023-04-03T00:03:08;4.70;;;1.50;;
15354;SDS011;7777;52.254;9.618;2023-04-03T00:05:33;3.90;;;1.50;;
15354;SDS011;7777;52.254;9.618;2023-04-03T00:07:59;7.47;;;1.70;;
15354;SDS011;7777;52.254;9.618;2023-04-03T00:10:27;4.43;;;1.40;;
15354;SDS011;7777;52.254;9.618;2023-04-03T00:12:53;4.90;;;1.73;;
15354;SDS011;7777;52.254;9.618;2023-04-03T00:15:19;6.43;;;1.90;;
15354;SDS011;7777;52.254;9.618;2023-04-03T00:17:45;2.67;;;1.27;;
15354;SDS011;7777;52.254;9.618;2023-04-03T00:20:10;2.40;;;1.13;;
15354;SDS011;7777;52.254;9.618;2023-04-03T00:22:36;3.00;;;1.33;;
15354;SDS011;7777;52.254;9.618;2023-04-03T00:25:02;4.17;;;1.80;;
15354;SDS011;7777;52.254;9.618;2023-04-03T00:27:28;3.73;;;1.63;;
15354;SDS011;7777;52.254;9.618;2023-04-03T00:29:54;4.87;;;1.53;;
15354;SDS011;7777;52.254;9.618;2023-04-03T00:32:20;6.90;;;1.50;;
15354;SDS011;7777;52.254;9.618;2023-04-03T00:34:45;6.60;;;1.97;;
15354;SDS011;7777;52.254;9.618;2023-04-03T00:37:11;5.07;;;1.40;;
15354;SDS011;7777;52.254;9.618;2023-04-03T00:39:37;5.37;;;1.60;;
15354;SDS011;7777;52.254;9.618;2023-04-03T00:42:02;6.37;;;1.60;;
15354;SDS011;7777;52.254;9.618;2023-04-03T00:47:00;2.43;;;1.40;;
15354;SDS011;7777;52.254;9.618;2023-04-03T00:49:29;6.70;;;1.50;;
15354;SDS011;7777;52.254;9.618;2023-04-03T00:51:55;6.60;;;1.60;;
15354;SDS011;7777;52.254;9.618;2023-04-03T00:54:23;6.53;;;1.77;;
15354;SDS011;7777;52.254;9.618;2023-04-03T00:56:50;2.87;;;1.03;;
15354;SDS011;7777;52.254;9.618;2023-04-03T00:59:24;5.33;;;2.13;;
15354;SDS011;7777;52.254;9.618;2023-04-03T01:01:56;6.97;;;1.60;;
15354;SDS011;7777;52.254;9.618;2023-04-03T01:04:32;5.37;;;1.50;;
15354;SDS011;7777;52.254;9.618;2023-04-03T01:07:01;3.50;;;1.00;;
15354;SDS011;7777;52.254;9.618;2023-04-03T01:09:40;3.53;;;1.57;;
15354;SDS011;7777;52.254;9.618;2023-04-03T01:12:20;4.57;;;1.27;;
15354;SDS011;7777;52.254;9.618;2023-04-03T01:14:59;5.70;;;1.70;;
15354;SDS011;7777;52.254;9.618;2023-04-03T01:20:23;4.23;;;1.40;;
15354;SDS011;7777;52.254;9.618;2023-04-03T01:26:31;4.80;;;1.10;;
15354;SDS011;7777;52.254;9.618;2023-04-03T01:28:58;6.17;;;1.77;;
15354;SDS011;7777;52.254;9.618;2023-04-03T01:31:26;4.17;;;1.60;;
15354;SDS011;7777;52.254;9.618;2023-04-03T01:34:10;4.77;;;1.90;;
15354;SDS011;7777;52.254;9.618;2023-04-03T01:36:36;4.80;;;1.67;;
15354;SDS011;7777;52.254;9.618;2023-04-03T01:39:01;6.50;;;1.90;;
15354;SDS011;7777;52.254;9.618;2023-04-03T01:41:27;5.10;;;1.80;;
15354;SDS011;7777;52.254;9.618;2023-04-03T01:43:53;6.80;;;1.53;;
15354;SDS011;7777;52.254;9.618;2023-04-03T01:46:19;5.17;;;1.27;;
15354;SDS011;7777;52.254;9.618;2023-04-03T01:48:46;3.70;;;1.40;;
15354;SDS011;7777;52.254;9.618;2023-04-03T01:51:12;3.27;;;1.30;;
15354;SDS011;7777;52.254;9.618;2023-04-03T01:53:37;5.00;;;1.60;;
15354;SDS011;7777;52.254;9.618;2023-04-03T01:56:03;4.93;;;1.60;;
15354;SDS011;7777;52.254;9.618;2023-04-03T01:58:29;3.73;;;1.43;;
15354;SDS011;7777;52.254;9.618;2023-04-03T02:00:55;3.47;;;1.50;;
15354;SDS011;7777;52.254;9.618;2023-04-03T02:03:21;5.57;;;1.50;;
15354;SDS011;7777;52.254;9.618;2023-04-03T02:05:47;7.97;;;1.40;;
15354;SDS011;7777;52.254;9.618;2023-04-03T02:08:13;4.30;;;1.40;;
15354;SDS011;7777;52.254;9.618;2023-04-03T02:10:39;5.47;;;1.57;;
15354;SDS011;7777;52.254;9.618;2023-04-03T02:13:05;7.03;;;1.50;;
15354;SDS011;7777;52.254;9.618;2023-04-03T02:15:30;5.80;;;1.73;;
15354;SDS011;7777;52.254;9.618;2023-04-03T02:17:56;3.27;;;1.37;;
15354;SDS011;7777;52.254;9.618;2023-04-03T02:20:22;7.33;;;1.77;;
15354;SDS011;7777;52.254;9.618;2023-04-03T02:22:48;3.37;;;1.53;;
15354;SDS011;7777;52.254;9.618;2023-04-03T02:25:13;3.80;;;1.20;;
15354;SDS011;7777;52.254;9.618;2023-04-03T02:27:39;2.97;;;1.27;;
15354;SDS011;7777;52.254;9.618;2023-04-03T02:30:06;5.60;;;1.90;;
15354;SDS011;7777;52.254;9.618;2023-04-03T02:32:32;7.40;;;1.60;;
15354;SDS011;7777;52.254;9.618;2023-04-03T02:34:57;6.67;;;2.13;;
15354;SDS011;7777;52.254;9.618;2023-04-03T02:37:23;7.17;;;2.27;;
15354;SDS011;7777;52.254;9.618;2023-04-03T02:39:49;4.43;;;1.60;;
15354;SDS011;7777;52.254;9.618;2023-04-03T02:42:15;3.07;;;1.50;;
15354;SDS011;7777;52.254;9.618;2023-04-03T02:44:40;3.90;;;1.53;;
15354;SDS011;7777;52.254;9.618;2023-04-03T02:47:06;6.17;;;1.70;;
15354;SDS011;7777;52.254;9.618;2023-04-03T02:49:32;4.27;;;1.27;;
15354;SDS011;7777;52.254;9.618;2023-04-03T02:51:57;6.13;;;1.50;;
15354;SDS011;7777;52.254;9.618;2023-04-03T02:54:23;6.63;;;1.10;;
15354;SDS011;7777;52.254;9.618;2023-04-03T02:56:52;6.13;;;1.50;;
15354;SDS011;7777;52.254;9.618;2023-04-03T02:59:18;8.07;;;1.53;;
15354;SDS011;7777;52.254;9.618;2023-04-03T03:01:44;4.33;;;1.90;;
15354;SDS011;7777;52.254;9.618;2023-04-03T03:04:10;5.10;;;1.83;;
15354;SDS011;7777;52.254;9.618;2023-04-03T03:06:36;3.07;;;1.33;;
15354;SDS011;7777;52.254;9.618;2023-04-03T03:09:02;2.57;;;1.47;;
15354;SDS011;7777;52.254;9.618;2023-04-03T03:11:28;2.37;;;1.30;;
15354;SDS011;7777;52.254;9.618;2023-04-03T03:13:55;5.03;;;1.57;;
15354;SDS011;7777;52.254;9.618;2023-04-03T03:16:20;4.30;;;1.50;;
15354;SDS011;7777;52.254;9.618;2023-04-03T03:18:46;3.73;;;1.43;;
15354;SDS011;7777;52.254;9.618;2023-04-03T03:21:12;6.07;;;2.27;;
15354;SDS011;7777;52.254;9.618;2023-04-03T03:23:37;7.67;;;1.40;;
15354;SDS011;7777;52.254;9.618;2023-04-03T03:26:04;4.60;;;1.80;;
15354;SDS011;7777;52.254;9.618;2023-04-03T03:28:33;3.80;;;1.20;;
15354;SDS011;7777;52.254;9.618;2023-04-03T03:30:59;3.60;;;1.33;;
15354;SDS011;7777;52.254;9.618;2023-04-03T03:33:26;2.07;;;1.10;;
15354;SDS011;7777;52.254;9.618;2023-04-03T03:35:52;8.00;;;1.47;;
15354;SDS011;7777;52.254;9.618;2023-04-03T03:38:19;7.13;;;1.77;;
15354;SDS011;7777;52.254;9.618;2023-04-03T03:40:44;5.03;;;1.80;;
15354;SDS011;7777;52.254;9.618;2023-04-03T03:43:13;5.93;;;1.40;;
15354;SDS011;7777;52.254;9.618;2023-04-03T03:45:40;3.40;;;1.30;;
15354;SDS011;7777;52.254;9.618;2023-04-03T03:48:05;4.97;;;1.30;;
15354;SDS011;7777;52.254;9.618;2023-04-03T03:50:31;4.57;;;1.77;;
15354;SDS011;7777;52.254;9.618;2023-04-03T03:52:57;3.70;;;1.20;;
15354;SDS011;7777;52.254;9.618;2023-04-03T03:55:23;6.77;;;1.40;;
15354;SDS011;7777;52.254;9.618;2023-04-03T03:57:48;4.37;;;1.30;;
15354;SDS011;7777;52.254;9.618;2023-04-03T04:00:14;4.80;;;1.60;;
15354;SDS011;7777;52.254;9.618;2023-04-03T04:02:41;5.67;;;1.67;;
15354;SDS011;7777;52.254;9.618;2023-04-03T04:05:07;5.13;;;1.70;;
15354;SDS011;7777;52.254;9.618;2023-04-03T04:07:33;2.10;;;1.03;;
15354;SDS011;7777;52.254;9.618;2023-04-03T04:10:01;4.00;;;1.53;;
15354;SDS011;7777;52.254;9.618;2023-04-03T04:12:27;3.67;;;1.33;;
15354;SDS011;7777;52.254;9.618;2023-04-03T04:14:53;7.37;;;1.67;;
15354;SDS011;7777;52.254;9.618;2023-04-03T04:17:19;5.03;;;1.37;;
15354;SDS011;7777;52.254;9.618;2023-04-03T04:19:44;2.07;;;1.33;;
15354;SDS011;7777;52.254;9.618;2023-04-03T04:22:10;2.80;;;1.63;;
15354;SDS011;7777;52.254;9.618;2023-04-03T04:24:36;6.67;;;1.67;;
15354;SDS011;7777;52.254;9.618;2023-04-03T04:27:02;4.40;;;1.83;;
15354;SDS011;7777;52.254;9.618;2023-04-03T04:29:27;6.20;;;1.53;;
15354;SDS011;7777;52.254;9.618;2023-04-03T04:31:53;4.33;;;1.67;;
15354;SDS011;7777;52.254;9.618;2023-04-03T04:34:19;4.60;;;1.63;;
15354;SDS011;7777;52.254;9.618;2023-04-03T04:36:45;8.07;;;2.23;;
15354;SDS011;7777;52.254;9.618;2023-04-03T04:39:10;4.47;;;1.97;;
15354;SDS011;7777;52.254;9.618;2023-04-03T04:41:36;8.27;;;1.97;;
15354;SDS011;7777;52.254;9.618;2023-04-03T04:44:02;3.60;;;1.60;;
15354;SDS011;7777;52.254;9.618;2023-04-03T04:46:27;4.73;;;1.60;;
15354;SDS011;7777;52.254;9.618;2023-04-03T04:48:53;4.20;;;1.93;;
15354;SDS011;7777;52.254;9.618;2023-04-03T04:51:19;5.50;;;1.80;;
15354;SDS011;7777;52.254;9.618;2023-04-03T04:53:45;4.40;;;1.50;;
15354;SDS011;7777;52.254;9.618;2023-04-03T04:56:10;7.30;;;1.90;;
15354;SDS011;7777;52.254;9.618;2023-04-03T04:58:38;8.97;;;2.17;;
15354;SDS011;7777;52.254;9.618;2023-04-03T05:01:05;4.53;;;1.83;;
15354;SDS011;7777;52.254;9.618;2023-04-03T05:03:34;10.00;;;1.93;;
15354;SDS011;7777;52.254;9.618;2023-04-03T05:06:00;6.17;;;1.83;;
15354;SDS011;7777;52.254;9.618;2023-04-03T05:08:26;4.67;;;2.00;;
15354;SDS011;7777;52.254;9.618;2023-04-03T05:10:51;5.10;;;1.50;;
15354;SDS011;7777;52.254;9.618;2023-04-03T05:13:18;6.27;;;1.80;;
15354;SDS011;7777;52.254;9.618;2023-04-03T05:15:45;4.87;;;1.90;;
15354;SDS011;7777;52.254;9.618;2023-04-03T05:18:11;5.57;;;1.87;;
15354;SDS011;7777;52.254;9.618;2023-04-03T05:20:38;8.23;;;2.57;;
15354;SDS011;7777;52.254;9.618;2023-04-03T05:23:03;7.80;;;2.70;;
15354;SDS011;7777;52.254;9.618;2023-04-03T05:25:29;4.30;;;1.67;;
15354;SDS011;7777;52.254;9.618;2023-04-03T05:27:55;3.37;;;1.80;;
15354;SDS011;7777;52.254;9.618;2023-04-03T05:30:21;5.77;;;2.00;;
15354;SDS011;7777;52.254;9.618;2023-04-03T05:32:47;7.70;;;2.10;;
15354;SDS011;7777;52.254;9.618;2023-04-03T05:35:13;5.70;;;2.60;;
15354;SDS011;7777;52.254;9.618;2023-04-03T05:37:39;7.57;;;1.93;;
15354;SDS011;7777;52.254;9.618;2023-04-03T05:40:06;6.33;;;2.20;;
15354;SDS011;7777;52.254;9.618;2023-04-03T05:42:33;9.30;;;2.13;;
15354;SDS011;7777;52.254;9.618;2023-04-03T05:44:58;4.93;;;2.17;;
15354;SDS011;7777;52.254;9.618;2023-04-03T05:47:24;8.83;;;2.50;;
15354;SDS011;7777;52.254;9.618;2023-04-03T05:49:50;7.70;;;2.17;;
15354;SDS011;7777;52.254;9.618;2023-04-03T05:52:29;8.07;;;2.40;;
15354;SDS011;7777;52.254;9.618;2023-04-03T05:54:58;8.33;;;2.43;;
15354;SDS011;7777;52.254;9.618;2023-04-03T05:57:23;4.53;;;1.90;;
15354;SDS011;7777;52.254;9.618;2023-04-03T05:59:49;6.57;;;2.13;;
15354;SDS011;7777;52.254;9.618;2023-04-03T06:02:18;16.37;;;2.87;;
15354;SDS011;7777;52.254;9.618;2023-04-03T06:04:46;6.50;;;2.47;;
15354;SDS011;7777;52.254;9.618;2023-04-03T06:07:16;10.53;;;2.20;;
15354;SDS011;7777;52.254;9.618;2023-04-03T06:09:46;7.80;;;2.10;;
15354;SDS011;7777;52.254;9.618;2023-04-03T06:12:12;7.50;;;1.97;;
15354;SDS011;7777;52.254;9.618;2023-04-03T06:14:38;7.83;;;3.00;;
15354;SDS011;7777;52.254;9.618;2023-04-03T06:17:04;6.73;;;2.90;;
15354;SDS011;7777;52.254;9.618;2023-04-03T06:19:31;7.20;;;2.97;;
15354;SDS011;7777;52.254;9.618;2023-04-03T06:21:56;6.57;;;2.23;;
15354;SDS011;7777;52.254;9.618;2023-04-03T06:24:22;7.20;;;2.30;;
15354;SDS011;7777;52.254;9.618;2023-04-03T06:26:49;7.57;;;1.87;;
15354;SDS011;7777;52.254;9.618;2023-04-03T06:29:16;4.83;;;2.20;;
15354;SDS011;7777;52.254;9.618;2023-04-03T06:31:42;6.43;;;2.30;;
15354;SDS011;7777;52.254;9.618;2023-04-03T06:34:09;5.57;;;1.83;;
15354;SDS011;7777;52.254;9.618;2023-04-03T06:36:35;8.60;;;2.60;;
15354;SDS011;7777;52.254;9.618;2023-04-03T06:39:01;9.57;;;2.57;;
15354;SDS011;7777;52.254;9.618;2023-04-03T06:41:28;10.27;;;2.50;;
15354;SDS011;7777;52.254;9.618;2023-04-03T06:46:24;6.77;;;2.00;;
15354;SDS011;7777;52.254;9.618;2023-04-03T06:48:51;9.70;;;2.87;;
15354;SDS011;7777;52.254;9.618;2023-04-03T06:51:19;7.17;;;1.93;;
15354;SDS011;7777;52.254;9.618;2023-04-03T06:53:48;6.67;;;1.97;;
15354;SDS011;7777;52.254;9.618;2023-04-03T06:56:16;5.30;;;1.73;;
15354;SDS011;7777;52.254;9.618;2023-04-03T06:58:42;9.60;;;2.33;;
15354;SDS011;7777;52.254;9.618;2023-04-03T07:01:09;7.63;;;2.27;;
15354;SDS011;7777;52.254;9.618;2023-04-03T07:03:37;5.90;;;2.20;;
15354;SDS011;7777;52.254;9.618;2023-04-03T07:06:04;4.17;;;2.10;;
15354;SDS011;7777;52.254;9.618;2023-04-03T07:08:32;6.47;;;2.00;;
15354;SDS011;7777;52.254;9.618;2023-04-03T07:10:58;6.33;;;2.00;;
15354;SDS011;7777;52.254;9.618;2023-04-03T07:13:24;7.13;;;1.80;;
15354;SDS011;7777;52.254;9.618;2023-04-03T07:15:50;6.93;;;2.30;;
15354;SDS011;7777;52.254;9.618;2023-04-03T07:18:15;5.20;;;1.63;;
15354;SDS011;7777;52.254;9.618;2023-04-03T07:20:42;6.90;;;1.80;;
15354;SDS011;7777;52.254;9.618;2023-04-03T07:23:08;7.00;;;1.80;;
15354;SDS011;7777;52.254;9.618;2023-04-03T07:25:33;8.37;;;2.27;;
15354;SDS011;7777;52.254;9.618;2023-04-03T07:27:59;3.67;;;1.90;;
15354;SDS011;7777;52.254;9.618;2023-04-03T07:30:25;5.47;;;1.83;;
15354;SDS011;7777;52.254;9.618;2023-04-03T07:32:51;4.93;;;1.87;;
15354;SDS011;7777;52.254;9.618;2023-04-03T07:35:17;5.87;;;1.80;;
15354;SDS011;7777;52.254;9.618;2023-04-03T07:37:43;8.50;;;2.13;;
15354;SDS011;7777;52.254;9.618;2023-04-03T07:40:08;7.23;;;1.77;;
15354;SDS011;7777;52.254;9.618;2023-04-03T07:42:36;7.40;;;1.70;;
15354;SDS011;7777;52.254;9.618;2023-04-03T07:45:02;4.67;;;1.67;;
15354;SDS011;7777;52.254;9.618;2023-04-03T07:47:29;5.70;;;2.20;;
15354;SDS011;7777;52.254;9.618;2023-04-03T07:49:56;4.30;;;2.13;;
15354;SDS011;7777;52.254;9.618;2023-04-03T07:52:22;9.83;;;2.60;;
15354;SDS011;7777;52.254;9.618;2023-04-03T07:54:48;4.90;;;1.47;;
15354;SDS011;7777;52.254;9.618;2023-04-03T07:57:14;5.07;;;1.93;;
15354;SDS011;7777;52.254;9.618;2023-04-03T07:59:40;8.63;;;1.70;;
15354;SDS011;7777;52.254;9.618;2023-04-03T08:02:08;6.50;;;1.90;;
15354;SDS011;7777;52.254;9.618;2023-04-03T08:04:35;4.90;;;2.03;;
15354;SDS011;7777;52.254;9.618;2023-04-03T08:07:01;6.80;;;1.80;;
15354;SDS011;7777;52.254;9.618;2023-04-03T08:09:26;7.40;;;1.60;;
15354;SDS011;7777;52.254;9.618;2023-04-03T08:11:52;4.80;;;2.10;;
15354;SDS011;7777;52.254;9.618;2023-04-03T08:14:18;5.43;;;1.93;;
15354;SDS011;7777;52.254;9.618;2023-04-03T08:16:45;6.07;;;1.87;;
15354;SDS011;7777;52.254;9.618;2023-04-03T08:19:13;5.33;;;1.70;;
15354;SDS011;7777;52.254;9.618;2023-04-03T08:21:41;5.20;;;1.43;;
15354;SDS011;7777;52.254;9.618;2023-04-03T08:24:07;6.80;;;2.30;;
15354;SDS011;7777;52.254;9.618;2023-04-03T08:26:34;7.50;;;2.10;;
15354;SDS011;7777;52.254;9.618;2023-04-03T08:29:01;5.10;;;1.50;;
15354;SDS011;7777;52.254;9.618;2023-04-03T08:31:26;1.70;;;0.83;;
15354;SDS011;7777;52.254;9.618;2023-04-03T08:33:52;12.47;;;1.50;;
15354;SDS011;7777;52.254;9.618;2023-04-03T08:36:19;5.43;;;1.47;;
15354;SDS011;7777;52.254;9.618;2023-04-03T08:38:48;8.23;;;1.80;;
15354;SDS011;7777;52.254;9.618;2023-04-03T08:41:26;6.37;;;1.43;;
15354;SDS011;7777;52.254;9.618;2023-04-03T08:44:02;6.07;;;1.57;;
15354;SDS011;7777;52.254;9.618;2023-04-03T08:52:52;4.33;;;1.43;;
15354;SDS011;7777;52.254;9.618;2023-04-03T08:55:22;4.57;;;1.30;;
15354;SDS011;7777;52.254;9.618;2023-04-03T08:58:00;3.63;;;1.27;;
15354;SDS011;7777;52.254;9.618;2023-04-03T09:00:50;9.03;;;1.33;;
15354;SDS011;7777;52.254;9.618;2023-04-03T09:03:29;3.30;;;1.20;;
15354;SDS011;7777;52.254;9.618;2023-04-03T09:06:05;8.17;;;1.20;;
15354;SDS011;7777;52.254;9.618;2023-04-03T09:15:18;3.93;;;1.37;;
15354;SDS011;7777;52.254;9.618;2023-04-03T09:18:06;3.73;;;1.27;;
15354;SDS011;7777;52.254;9.618;2023-04-03T09:23:47;5.53;;;1.43;;
15354;SDS011;7777;52.254;9.618;2023-04-03T09:26:24;4.03;;;0.90;;
15354;SDS011;7777;52.254;9.618;2023-04-03T09:28:58;3.60;;;1.03;;
15354;SDS011;7777;52.254;9.618;2023-04-03T09:31:29;7.43;;;1.10;;
15354;SDS011;7777;52.254;9.618;2023-04-03T09:34:05;4.97;;;1.00;;
15354;SDS011;7777;52.254;9.618;2023-04-03T09:36:48;2.40;;;0.90;;
15354;SDS011;7777;52.254;9.618;2023-04-03T09:39:17;1.67;;;0.83;;
15354;SDS011;7777;52.254;9.618;2023-04-03T09:44:37;3.97;;;1.50;;
15354;SDS011;7777;52.254;9.618;2023-04-03T09:47:17;4.47;;;1.00;;
15354;SDS011;7777;52.254;9.618;2023-04-03T09:52:39;3.63;;;1.10;;
15354;SDS011;7777;52.254;9.618;2023-04-03T09:55:08;4.43;;;1.00;;
15354;SDS011;7777;52.254;9.618;2023-04-03T09:57:51;4.27;;;1.03;;
15354;SDS011;7777;52.254;9.618;2023-04-03T10:00:23;5.53;;;1.40;;
15354;SDS011;7777;52.254;9.618;2023-04-03T10:02:54;5.50;;;1.20;;
15354;SDS011;7777;52.254;9.618;2023-04-03T10:10:38;3.97;;;0.90;;
15354;SDS011;7777;52.254;9.618;2023-04-03T10:13:09;3.43;;;1.10;;
15354;SDS011;7777;52.254;9.618;2023-04-03T10:15:57;2.37;;;1.13;;
15354;SDS011;7777;52.254;9.618;2023-04-03T10:18:45;4.50;;;1.03;;
15354;SDS011;7777;52.254;9.618;2023-04-03T10:21:55;2.77;;;0.80;;
15354;SDS011;7777;52.254;9.618;2023-04-03T10:24:23;2.97;;;1.10;;
15354;SDS011;7777;52.254;9.618;2023-04-03T10:27:25;2.97;;;1.13;;
15354;SDS011;7777;52.254;9.618;2023-04-03T10:30:19;0.97;;;0.80;;
15354;SDS011;7777;52.254;9.618;2023-04-03T10:39:06;5.23;;;1.07;;
15354;SDS011;7777;52.254;9.618;2023-04-03T10:42:08;4.90;;;1.07;;
15354;SDS011;7777;52.254;9.618;2023-04-03T10:47:48;2.40;;;0.80;;
15354;SDS011;7777;52.254;9.618;2023-04-03T10:50:31;1.73;;;1.03;;
15354;SDS011;7777;52.254;9.618;2023-04-03T10:53:29;4.77;;;1.07;;
15354;SDS011;7777;52.254;9.618;2023-04-03T10:58:44;1.67;;;0.70;;
15354;SDS011;7777;52.254;9.618;2023-04-03T11:01:19;2.30;;;0.90;;
15354;SDS011;7777;52.254;9.618;2023-04-03T11:03:54;6.53;;;1.10;;
15354;SDS011;7777;52.254;9.618;2023-04-03T11:06:24;2.50;;;1.10;;
15354;SDS011;7777;52.254;9.618;2023-04-03T11:09:41;6.63;;;1.27;;
15354;SDS011;7777;52.254;9.618;2023-04-03T11:11:53;2.27;;;0.70;;
15354;SDS011;7777;52.254;9.618;2023-04-03T11:14:28;11.73;;;1.07;;
15354;SDS011;7777;52.254;9.618;2023-04-03T11:17:19;3.10;;;1.00;;
15354;SDS011;7777;52.254;9.618;2023-04-03T11:20:04;1.67;;;0.70;;
15354;SDS011;7777;52.254;9.618;2023-04-03T11:22:41;4.60;;;1.00;;
15354;SDS011;7777;52.254;9.618;2023-04-03T11:28:21;3.37;;;1.00;;
15354;SDS011;7777;52.254;9.618;2023-04-03T11:36:40;2.23;;;1.00;;
15354;SDS011;7777;52.254;9.618;2023-04-03T11:39:22;2.27;;;0.80;;
15354;SDS011;7777;52.254;9.618;2023-04-03T11:41:53;4.23;;;1.27;;
15354;SDS011;7777;52.254;9.618;2023-04-03T11:44:28;5.40;;;1.23;;
15354;SDS011;7777;52.254;9.618;2023-04-03T11:47:08;5.03;;;1.20;;
15354;SDS011;7777;52.254;9.618;2023-04-03T12:08:28;2.80;;;1.00;;
15354;SDS011;7777;52.254;9.618;2023-04-03T12:11:31;2.30;;;0.87;;
15354;SDS011;7777;52.254;9.618;2023-04-03T12:14:12;6.53;;;1.10;;
15354;SDS011;7777;52.254;9.618;2023-04-03T12:24:26;4.00;;;0.80;;
15354;SDS011;7777;52.254;9.618;2023-04-03T12:29:53;2.73;;;1.53;;
15354;SDS011;7777;52.254;9.618;2023-04-03T12:44:01;3.50;;;1.33;;
15354;SDS011;7777;52.254;9.618;2023-04-03T12:46:53;7.77;;;1.10;;
15354;SDS011;7777;52.254;9.618;2023-04-03T12:49:26;2.47;;;0.90;;
15354;SDS011;7777;52.254;9.618;2023-04-03T12:52:19;3.87;;;1.20;;
15354;SDS011;7777;52.254;9.618;2023-04-03T12:55:17;2.00;;;0.90;;
15354;SDS011;7777;52.254;9.618;2023-04-03T12:57:45;2.63;;;0.70;;
15354;SDS011;7777;52.254;9.618;2023-04-03T13:02:58;3.30;;;0.87;;
15354;SDS011;7777;52.254;9.618;2023-04-03T13:05:25;2.03;;;1.13;;
15354;SDS011;7777;52.254;9.618;2023-04-03T13:07:54;2.97;;;1.20;;
15354;SDS011;7777;52.254;9.618;2023-04-03T13:10:26;2.63;;;0.90;;
15354;SDS011;7777;52.254;9.618;2023-04-03T13:12:54;2.40;;;0.77;;
15354;SDS011;7777;52.254;9.618;2023-04-03T13:15:29;2.50;;;1.17;;
15354;SDS011;7777;52.254;9.618;2023-04-03T13:18:20;3.10;;;1.10;;
15354;SDS011;7777;52.254;9.618;2023-04-03T13:21:18;2.53;;;0.93;;
15354;SDS011;7777;52.254;9.618;2023-04-03T13:23:50;4.53;;;1.10;;
15354;SDS011;7777;52.254;9.618;2023-04-03T13:26:18;2.80;;;1.27;;
15354;SDS011;7777;52.254;9.618;2023-04-03T13:28:47;3.80;;;1.00;;
15354;SDS011;7777;52.254;9.618;2023-04-03T13:31:25;4.80;;;1.20;;
15354;SDS011;7777;52.254;9.618;2023-04-03T13:34:03;3.37;;;1.23;;
15354;SDS011;7777;52.254;9.618;2023-04-03T13:36:44;4.00;;;1.00;;
15354;SDS011;7777;52.254;9.618;2023-04-03T13:39:27;4.43;;;1.10;;
15354;SDS011;7777;52.254;9.618;2023-04-03T13:41:58;3.40;;;1.10;;
15354;SDS011;7777;52.254;9.618;2023-04-03T13:44:42;1.20;;;0.67;;
15354;SDS011;7777;52.254;9.618;2023-04-03T13:49:37;2.80;;;1.13;;
15354;SDS011;7777;52.254;9.618;2023-04-03T13:57:57;4.43;;;1.00;;
15354;SDS011;7777;52.254;9.618;2023-04-03T14:06:06;2.70;;;0.80;;
15354;SDS011;7777;52.254;9.618;2023-04-03T14:08:36;7.10;;;1.03;;
15354;SDS011;7777;52.254;9.618;2023-04-03T14:11:02;3.20;;;1.27;;
15354;SDS011;7777;52.254;9.618;2023-04-03T14:13:29;2.37;;;0.90;;
15354;SDS011;7777;52.254;9.618;2023-04-03T14:15:56;4.00;;;1.03;;
15354;SDS011;7777;52.254;9.618;2023-04-03T14:18:22;2.33;;;0.90;;
15354;SDS011;7777;52.254;9.618;2023-04-03T14:20:48;1.93;;;1.10;;
15354;SDS011;7777;52.254;9.618;2023-04-03T14:23:14;1.90;;;1.07;;
15354;SDS011;7777;52.254;9.618;2023-04-03T14:25:40;1.67;;;0.80;;
15354;SDS011;7777;52.254;9.618;2023-04-03T14:28:15;4.23;;;1.20;;
15354;SDS011;7777;52.254;9.618;2023-04-03T14:30:46;3.10;;;1.10;;
15354;SDS011;7777;52.254;9.618;2023-04-03T14:33:14;3.07;;;1.07;;
15354;SDS011;7777;52.254;9.618;2023-04-03T14:35:46;5.90;;;2.23;;
15354;SDS011;7777;52.254;9.618;2023-04-03T14:38:26;7.10;;;1.00;;
15354;SDS011;7777;52.254;9.618;2023-04-03T14:40:55;1.10;;;0.80;;
15354;SDS011;7777;52.254;9.618;2023-04-03T14:43:22;2.47;;;1.10;;
15354;SDS011;7777;52.254;9.618;2023-04-03T14:45:48;3.07;;;1.17;;
15354;SDS011;7777;52.254;9.618;2023-04-03T14:48:17;6.00;;;2.30;;
15354;SDS011;7777;52.254;9.618;2023-04-03T14:50:47;7.33;;;4.10;;
15354;SDS011;7777;52.254;9.618;2023-04-03T14:53:14;3.97;;;2.03;;
15354;SDS011;7777;52.254;9.618;2023-04-03T14:55:41;4.77;;;1.90;;
15354;SDS011;7777;52.254;9.618;2023-04-03T14:58:11;4.93;;;1.33;;
15354;SDS011;7777;52.254;9.618;2023-04-03T15:00:42;4.57;;;1.10;;
15354;SDS011;7777;52.254;9.618;2023-04-03T15:03:19;1.83;;;1.07;;
15354;SDS011;7777;52.254;9.618;2023-04-03T15:05:47;4.67;;;1.10;;
15354;SDS011;7777;52.254;9.618;2023-04-03T15:08:18;2.50;;;1.10;;
15354;SDS011;7777;52.254;9.618;2023-04-03T15:10:50;3.00;;;1.23;;
15354;SDS011;7777;52.254;9.618;2023-04-03T15:13:21;2.33;;;1.03;;
15354;SDS011;7777;52.254;9.618;2023-04-03T15:15:48;1.53;;;0.97;;
15354;SDS011;7777;52.254;9.618;2023-04-03T15:18:16;3.00;;;1.17;;
15354;SDS011;7777;52.254;9.618;2023-04-03T15:20:46;2.30;;;0.93;;
15354;SDS011;7777;52.254;9.618;2023-04-03T15:23:13;5.33;;;1.20;;
15354;SDS011;7777;52.254;9.618;2023-04-03T15:25:42;2.83;;;1.00;;
15354;SDS011;7777;52.254;9.618;2023-04-03T15:28:13;3.73;;;1.03;;
15354;SDS011;7777;52.254;9.618;2023-04-03T15:30:58;4.63;;;1.30;;
15354;SDS011;7777;52.254;9.618;2023-04-03T15:33:24;5.40;;;1.27;;
15354;SDS011;7777;52.254;9.618;2023-04-03T15:35:51;3.13;;;1.07;;
15354;SDS011;7777;52.254;9.618;2023-04-03T15:38:16;3.53;;;1.60;;
15354;SDS011;7777;52.254;9.618;2023-04-03T15:40:49;2.47;;;1.10;;
15354;SDS011;7777;52.254;9.618;2023-04-03T15:43:15;2.50;;;1.03;;
15354;SDS011;7777;52.254;9.618;2023-04-03T15:45:42;4.47;;;1.30;;
15354;SDS011;7777;52.254;9.618;2023-04-03T15:48:09;2.67;;;1.13;;
15354;SDS011;7777;52.254;9.618;2023-04-03T15:50:36;5.30;;;1.20;;
15354;SDS011;7777;52.254;9.618;2023-04-03T15:53:02;3.93;;;1.37;;
15354;SDS011;7777;52.254;9.618;2023-04-03T15:55:30;3.03;;;1.40;;
15354;SDS011;7777;52.254;9.618;2023-04-03T15:57:59;5.67;;;1.10;;
15354;SDS011;7777;52.254;9.618;2023-04-03T16:00:26;7.77;;;1.47;;
15354;SDS011;7777;52.254;9.618;2023-04-03T16:02:53;3.73;;;1.20;;
15354;SDS011;7777;52.254;9.618;2023-04-03T16:05:41;2.93;;;1.17;;
15354;SDS011;7777;52.254;9.618;2023-04-03T16:08:07;4.80;;;1.30;;
15354;SDS011;7777;52.254;9.618;2023-04-03T16:10:34;1.53;;;1.03;;
15354;SDS011;7777;52.254;9.618;2023-04-03T16:13:01;5.07;;;1.57;;
15354;SDS011;7777;52.254;9.618;2023-04-03T16:15:27;3.73;;;1.30;;
15354;SDS011;7777;52.254;9.618;2023-04-03T16:17:54;3.10;;;1.37;;
15354;SDS011;7777;52.254;9.618;2023-04-03T16:20:20;4.43;;;1.70;;
15354;SDS011;7777;52.254;9.618;2023-04-03T16:22:46;7.07;;;1.63;;
15354;SDS011;7777;52.254;9.618;2023-04-03T16:25:13;3.57;;;1.47;;
15354;SDS011;7777;52.254;9.618;2023-04-03T16:27:39;3.57;;;1.00;;
15354;SDS011;7777;52.254;9.618;2023-04-03T16:30:05;2.87;;;0.93;;
15354;SDS011;7777;52.254;9.618;2023-04-03T16:35:06;2.40;;;1.10;;
15354;SDS011;7777;52.254;9.618;2023-04-03T16:37:35;2.27;;;1.17;;
15354;SDS011;7777;52.254;9.618;2023-04-03T16:40:02;2.97;;;1.37;;
15354;SDS011;7777;52.254;9.618;2023-04-03T16:42:30;3.80;;;1.60;;
15354;SDS011;7777;52.254;9.618;2023-04-03T16:44:56;2.80;;;1.30;;
15354;SDS011;7777;52.254;9.618;2023-04-03T16:47:21;2.97;;;1.10;;
15354;SDS011;7777;52.254;9.618;2023-04-03T16:49:47;3.33;;;1.63;;
15354;SDS011;7777;52.254;9.618;2023-04-03T16:52:13;3.20;;;1.30;;
15354;SDS011;7777;52.254;9.618;2023-04-03T16:54:38;4.20;;;0.90;;
15354;SDS011;7777;52.254;9.618;2023-04-03T16:57:04;3.13;;;1.20;;
15354;SDS011;7777;52.254;9.618;2023-04-03T16:59:30;2.77;;;1.33;;
15354;SDS011;7777;52.254;9.618;2023-04-03T17:01:56;5.83;;;1.60;;
15354;SDS011;7777;52.254;9.618;2023-04-03T17:04:21;3.97;;;1.47;;
15354;SDS011;7777;52.254;9.618;2023-04-03T17:06:47;8.03;;;2.00;;
15354;SDS011;7777;52.254;9.618;2023-04-03T17:09:13;5.63;;;1.97;;
15354;SDS011;7777;52.254;9.618;2023-04-03T17:11:39;5.97;;;2.67;;
15354;SDS011;7777;52.254;9.618;2023-04-03T17:14:04;3.77;;;1.90;;